Observation data for Haskell on 06/20/2019      Previous  Date  Next       Current Mesonet Observations  Soil Data  Daily Summary Page  Observations in Plain Language
KHA1 200500Z 12004KT 25/20 A2978 RMK A01 T02530203  RH  078%=      5-min Rain = 0
KHA1 200505Z 14005KT 25/20 A2978 RMK A01 T02530200  RH  077%=      5-min Rain = 0
KHA1 200510Z 16005KT 25/20 A2978 RMK A01 T02520200  RH  077%=      5-min Rain = 0
KHA1 200515Z 14005KT 25/20 A2978 RMK A01 T02530199  RH  076%=      5-min Rain = 0
KHA1 200520Z 14005KT 25/20 A2978 RMK A01 T02540199  RH  076%=      5-min Rain = 0
KHA1 200525Z 16006KT 26/20 A2978 RMK A01 T02550200  RH  076%=      5-min Rain = 0
KHA1 200530Z 16006KT 25/20 A2978 RMK A01 T02530199  RH  076%=      5-min Rain = 0
KHA1 200535Z 17007KT 25/19 A2978 RMK A01 T02520191  RH  073%=      5-min Rain = 0
KHA1 200540Z 18006KT 25/18 A2978 RMK A01 T02510184  RH  070%=      5-min Rain = 0
KHA1 200545Z 18005KT 25/19 A2978 RMK A01 T02480185  RH  072%=      5-min Rain = 0
KHA1 200550Z 17006KT 25/19 A2979 RMK A01 T02460185  RH  073%=      5-min Rain = 0
KHA1 200555Z 17005KT 24/19 A2979 RMK A01 T02440186  RH  074%=      5-min Rain = 0
KHA1 200600Z 16006KT 24/18 A2979 RMK A01 T02430183  RH  073%=      5-min Rain = 0
KHA1 200605Z 15005KT 24/18 A2979 RMK A01 T02430176  RH  070%=      5-min Rain = 0
KHA1 200610Z 16006KT 24/17 A2979 RMK A01 T02430174  RH  069%=      5-min Rain = 0
KHA1 200615Z 15005KT 24/17 A2979 RMK A01 T02420173  RH  069%=      5-min Rain = 0
KHA1 200620Z 16004KT 24/17 A2979 RMK A01 T02410174  RH  070%=      5-min Rain = 0
KHA1 200625Z 16005KT 24/17 A2979 RMK A01 T02400173  RH  070%=      5-min Rain = 0
KHA1 200630Z 15005KT 24/17 A2978 RMK A01 T02390173  RH  070%=      5-min Rain = 0
KHA1 200635Z 15004KT 24/17 A2978 RMK A01 T02380172  RH  070%=      5-min Rain = 0
KHA1 200640Z 16004KT 24/17 A2978 RMK A01 T02380170  RH  069%=      5-min Rain = 0
KHA1 200645Z 16005KT 24/17 A2978 RMK A01 T02370167  RH  068%=      5-min Rain = 0
KHA1 200650Z 17005KT 24/17 A2978 RMK A01 T02360166  RH  068%=      5-min Rain = 0
KHA1 200655Z 18004KT 23/17 A2978 RMK A01 T02340166  RH  069%=      5-min Rain = 0
KHA1 200700Z 18004KT 23/17 A2978 RMK A01 T02320166  RH  070%=      5-min Rain = 0
KHA1 200705Z 19004KT 23/17 A2978 RMK A01 T02270169  RH  074%=      5-min Rain = 0
KHA1 200710Z 19003KT 22/17 A2977 RMK A01 T02240170  RH  075%=      5-min Rain = 0
KHA1 200715Z 19002KT 22/17 A2977 RMK A01 T02230171  RH  076%=      5-min Rain = 0
KHA1 200720Z 19000KT 22/17 A2978 RMK A01 T02230172  RH  077%=      5-min Rain = 0
KHA1 200725Z 00000KT 22/18 A2978 RMK A01 T02220175  RH  079%=      5-min Rain = 0
KHA1 200730Z 12000KT 22/18 A2978 RMK A01 T02210177  RH  080%=      5-min Rain = 0
KHA1 200735Z 09001KT 22/17 A2978 RMK A01 T02170172  RH  080%=      5-min Rain = 0
KHA1 200740Z 07002KT 22/17 A2978 RMK A01 T02180172  RH  079%=      5-min Rain = 0
KHA1 200745Z 12003KT 22/17 A2978 RMK A01 T02180172  RH  079%=      5-min Rain = 0
KHA1 200750Z 13004KT 22/17 A2977 RMK A01 T02210168  RH  075%=      5-min Rain = 0
KHA1 200755Z 14005KT 23/16 A2977 RMK A01 T02250164  RH  072%=      5-min Rain = 0
KHA1 200800Z 16005KT 23/16 A2977 RMK A01 T02250163  RH  071%=      5-min Rain = 0
KHA1 200805Z 17004KT 22/16 A2977 RMK A01 T02240163  RH  072%=      5-min Rain = 0
KHA1 200810Z 16004KT 22/16 A2977 RMK A01 T02240162  RH  071%=      5-min Rain = 0
KHA1 200815Z 17005KT 22/16 A2977 RMK A01 T02240161  RH  071%=      5-min Rain = 0
KHA1 200820Z 18004KT 22/16 A2977 RMK A01 T02210164  RH  074%=      5-min Rain = 0
KHA1 200825Z 18005KT 22/17 A2976 RMK A01 T02160167  RH  077%=      5-min Rain = 0
KHA1 200830Z 18005KT 21/17 A2976 RMK A01 T02140166  RH  078%=      5-min Rain = 0
KHA1 200835Z 18005KT 22/17 A2976 RMK A01 T02160166  RH  077%=      5-min Rain = 0
KHA1 200840Z 18006KT 22/17 A2976 RMK A01 T02150167  RH  078%=      5-min Rain = 0
KHA1 200845Z 17006KT 22/17 A2976 RMK A01 T02190165  RH  075%=      5-min Rain = 0
KHA1 200850Z 17007KT 22/16 A2976 RMK A01 T02220163  RH  073%=      5-min Rain = 0
KHA1 200855Z 17007KT 23/16 A2976 RMK A01 T02250162  RH  071%=      5-min Rain = 0
KHA1 200900Z 16007KT 23/16 A2976 RMK A01 T02260161  RH  070%=      5-min Rain = 0
KHA1 200905Z 15007KT 23/16 A2976 RMK A01 T02270160  RH  069%=      5-min Rain = 0
KHA1 200910Z 15007KT 23/16 A2976 RMK A01 T02270161  RH  069%=      5-min Rain = 0
KHA1 200915Z 15007KT 23/16 A2976 RMK A01 T02250162  RH  071%=      5-min Rain = 0
KHA1 200920Z 15007KT 22/16 A2976 RMK A01 T02240162  RH  071%=      5-min Rain = 0
KHA1 200925Z 16007KT 23/16 A2976 RMK A01 T02250162  RH  071%=      5-min Rain = 0
KHA1 200930Z 15007KT 23/16 A2976 RMK A01 T02260162  RH  070%=      5-min Rain = 0
KHA1 200935Z 16008KT 23/16 A2976 RMK A01 T02280161  RH  069%=      5-min Rain = 0
KHA1 200940Z 16008KT 23/16 A2975 RMK A01 T02290162  RH  069%=      5-min Rain = 0
KHA1 200945Z 15008KT 23/16 A2975 RMK A01 T02280162  RH  070%=      5-min Rain = 0
KHA1 200950Z 15007KT 23/16 A2975 RMK A01 T02270161  RH  070%=      5-min Rain = 0
KHA1 200955Z 15007KT 23/16 A2975 RMK A01 T02270161  RH  070%=      5-min Rain = 0
KHA1 201000Z 15005KT 23/16 A2975 RMK A01 T02260162  RH  070%=      5-min Rain = 0
KHA1 201005Z 14005KT 23/16 A2975 RMK A01 T02250163  RH  071%=      5-min Rain = 0
KHA1 201010Z 14006KT 22/16 A2974 RMK A01 T02240163  RH  072%=      5-min Rain = 0
KHA1 201015Z 14006KT 22/16 A2974 RMK A01 T02240164  RH  073%=      5-min Rain = 0
KHA1 201020Z 14006KT 22/17 A2974 RMK A01 T02230165  RH  073%=      5-min Rain = 0
KHA1 201025Z 14006KT 23/17 A2974 RMK A01 T02250165  RH  073%=      5-min Rain = 0
KHA1 201030Z 14006KT 22/17 A2974 RMK A01 T02240166  RH  073%=      5-min Rain = 0
KHA1 201035Z 13005KT 23/17 A2974 RMK A01 T02250167  RH  074%=      5-min Rain = 0
KHA1 201040Z 13005KT 22/17 A2975 RMK A01 T02240168  RH  074%=      5-min Rain = 0
KHA1 201045Z 12005KT 22/17 A2975 RMK A01 T02220169  RH  076%=      5-min Rain = 0
KHA1 201050Z 11004KT 22/17 A2976 RMK A01 T02220170  RH  076%=      5-min Rain = 0
KHA1 201055Z 11004KT 22/17 A2976 RMK A01 T02220169  RH  076%=      5-min Rain = 0
KHA1 201100Z 11003KT 22/17 A2976 RMK A01 T02230170  RH  076%=      5-min Rain = 0
KHA1 201105Z 13003KT 22/17 A2975 RMK A01 T02220171  RH  077%=      5-min Rain = 0
KHA1 201110Z 13002KT 22/17 A2976 RMK A01 T02210171  RH  077%=      5-min Rain = 0
KHA1 201115Z 12003KT 22/17 A2975 RMK A01 T02210171  RH  077%=      5-min Rain = 0
KHA1 201120Z 12003KT 22/17 A2975 RMK A01 T02190173  RH  079%=      5-min Rain = 0
KHA1 201125Z 12003KT 22/17 A2975 RMK A01 T02180172  RH  079%=      5-min Rain = 0
KHA1 201130Z 13003KT 22/17 A2975 RMK A01 T02170171  RH  079%=      5-min Rain = 0
KHA1 201135Z 13003KT 22/17 A2975 RMK A01 T02180170  RH  078%=      5-min Rain = 0
KHA1 201140Z 14003KT 22/17 A2975 RMK A01 T02170171  RH  079%=      5-min Rain = 0
KHA1 201145Z 13004KT 22/17 A2975 RMK A01 T02170171  RH  079%=      5-min Rain = 0
KHA1 201150Z 13006KT 22/17 A2975 RMK A01 T02180172  RH  079%=      5-min Rain = 0
KHA1 201155Z 13005KT 22/17 A2975 RMK A01 T02200172  RH  078%=      5-min Rain = 0
KHA1 201200Z 13007KT 22/17 A2975 RMK A01 T02210173  RH  078%=      5-min Rain = 0
KHA1 201205Z 12006KT 22/17 A2974 RMK A01 T02220174  RH  078%=      5-min Rain = 0
KHA1 201210Z 11005KT 22/17 A2975 RMK A01 T02210174  RH  078%=      5-min Rain = 0
KHA1 201215Z 10004KT 22/17 A2975 RMK A01 T02190172  RH  078%=      5-min Rain = 0
KHA1 201220Z 08004KT 22/17 A2976 RMK A01 T02180172  RH  079%=      5-min Rain = 0
KHA1 201225Z 09005KT 22/17 A2976 RMK A01 T02180172  RH  079%=      5-min Rain = 0
KHA1 201230Z 11006KT 22/17 A2975 RMK A01 T02190173  RH  079%=      5-min Rain = 0
KHA1 201235Z 11008KT 22/17 A2975 RMK A01 T02190172  RH  079%=      5-min Rain = 0
KHA1 201240Z 11006KT 22/17 A2975 RMK A01 T02200173  RH  079%=      5-min Rain = 0
KHA1 201245Z 11007KT 22/18 A2976 RMK A01 T02220175  RH  079%=      5-min Rain = 0
KHA1 201250Z 11008KT 23/18 A2975 RMK A01 T02250178  RH  079%=      5-min Rain = 0
KHA1 201255Z 11008KT 23/18 A2975 RMK A01 T02260180  RH  079%=      5-min Rain = 0
KHA1 201300Z 12008KT 23/18 A2976 RMK A01 T02280181  RH  079%=      5-min Rain = 0
KHA1 201305Z 12009KT 23/18 A2976 RMK A01 T02290183  RH  080%=      5-min Rain = 0
KHA1 201310Z 11008G13KT 23/19 A2976 RMK A01 T02310185  RH  080%=      5-min Rain = 0
KHA1 201315Z 10007KT 24/19 A2976 RMK A01 T02350188  RH  079%=      5-min Rain = 0
KHA1 201320Z 11008KT 24/19 A2976 RMK A01 T02370190  RH  079%=      5-min Rain = 0
KHA1 201325Z 12006KT 24/19 A2976 RMK A01 T02390193  RH  080%=      5-min Rain = 0
KHA1 201330Z 12006KT 24/19 A2977 RMK A01 T02420194  RH  079%=      5-min Rain = 0
KHA1 201335Z 12007KT 24/20 A2976 RMK A01 T02420195  RH  079%=      5-min Rain = 0
KHA1 201340Z 12008KT 25/20 A2976 RMK A01 T02460198  RH  079%=      5-min Rain = 0
KHA1 201350Z 13007KT 25/20 A2976 RMK A01 T02520203  RH  079%=      5-min Rain = 0
KHA1 201355Z 14008KT 25/20 A2976 RMK A01 T02530204  RH  079%=      5-min Rain = 0
KHA1 201400Z 15006KT 26/21 A2976 RMK A01 T02560205  RH  078%=      5-min Rain = 0
KHA1 201405Z 16007G12KT 26/21 A2976 RMK A01 T02570205  RH  078%=      5-min Rain = 0
KHA1 201410Z 15005KT 26/21 A2976 RMK A01 T02580207  RH  078%=      5-min Rain = 0
KHA1 201415Z 16008KT 26/21 A2976 RMK A01 T02610207  RH  076%=      5-min Rain = 0
KHA1 201420Z 15006KT 26/21 A2976 RMK A01 T02630208  RH  076%=      5-min Rain = 0
KHA1 201425Z 16009KT 27/21 A2976 RMK A01 T02650208  RH  075%=      5-min Rain = 0
KHA1 201430Z 16008G13KT 27/21 A2976 RMK A01 T02670208  RH  074%=      5-min Rain = 0
KHA1 201435Z 16008KT 27/21 A2976 RMK A01 T02710209  RH  073%=      5-min Rain = 0
KHA1 201440Z 16007KT 27/21 A2976 RMK A01 T02730209  RH  072%=      5-min Rain = 0
KHA1 201445Z 17010KT 27/21 A2976 RMK A01 T02730206  RH  071%=      5-min Rain = 0
KHA1 201450Z 16009KT 27/21 A2976 RMK A01 T02730206  RH  071%=      5-min Rain = 0
KHA1 201455Z 15009KT 27/21 A2976 RMK A01 T02730208  RH  072%=      5-min Rain = 0
KHA1 201500Z 16009KT 28/21 A2976 RMK A01 T02750207  RH  071%=      5-min Rain = 0
KHA1 201505Z 16009G14KT 28/21 A2976 RMK A01 T02780208  RH  070%=      5-min Rain = 0
KHA1 201510Z 17009KT 28/21 A2976 RMK A01 T02820208  RH  068%=      5-min Rain = 0
KHA1 201515Z 16008KT 29/21 A2976 RMK A01 T02860207  RH  066%=      5-min Rain = 0
KHA1 201520Z 16009KT 29/21 A2976 RMK A01 T02870207  RH  066%=      5-min Rain = 0
KHA1 201525Z 17008G14KT 29/21 A2976 RMK A01 T02880206  RH  065%=      5-min Rain = 0
KHA1 201530Z 17008G13KT 29/21 A2976 RMK A01 T02920205  RH  063%=      5-min Rain = 0
KHA1 201535Z 17009KT 29/20 A2976 RMK A01 T02910204  RH  063%=      5-min Rain = 0
KHA1 201540Z 18009KT 29/21 A2976 RMK A01 T02930205  RH  063%=      5-min Rain = 0
KHA1 201545Z 18009G14KT 30/20 A2976 RMK A01 T02990203  RH  060%=      5-min Rain = 0
KHA1 201550Z 16009G14KT 29/21 A2975 RMK A01 T02940207  RH  063%=      5-min Rain = 0
KHA1 201555Z 18009KT 30/20 A2975 RMK A01 T02980204  RH  061%=      5-min Rain = 0
KHA1 201600Z 18011KT 30/20 A2975 RMK A01 T02990204  RH  060%=      5-min Rain = 0
KHA1 201605Z 18009KT 30/21 A2975 RMK A01 T02990205  RH  060%=      5-min Rain = 0
KHA1 201610Z 18009KT 30/21 A2975 RMK A01 T03030206  RH  060%=      5-min Rain = 0
KHA1 201615Z 18009G14KT 30/21 A2975 RMK A01 T03030207  RH  060%=      5-min Rain = 0
KHA1 201620Z 18009KT 31/21 A2975 RMK A01 T03060208  RH  059%=      5-min Rain = 0
KHA1 201625Z 19008G13KT 31/21 A2976 RMK A01 T03100207  RH  058%=      5-min Rain = 0
KHA1 201630Z 18010KT 31/21 A2976 RMK A01 T03090206  RH  057%=      5-min Rain = 0
KHA1 201635Z 18009G14KT 31/21 A2976 RMK A01 T03110207  RH  057%=      5-min Rain = 0
KHA1 201640Z 19009KT 31/21 A2976 RMK A01 T03140206  RH  056%=      5-min Rain = 0
KHA1 201645Z 21009KT 32/20 A2976 RMK A01 T03200204  RH  054%=      5-min Rain = 0
KHA1 201650Z 19009KT 32/21 A2976 RMK A01 T03200205  RH  054%=      5-min Rain = 0
KHA1 201655Z 19007G12KT 32/21 A2976 RMK A01 T03210207  RH  054%=      5-min Rain = 0
KHA1 201700Z 19008G13KT 33/21 A2976 RMK A01 T03270205  RH  051%=      5-min Rain = 0
KHA1 201705Z 19008KT 33/20 A2976 RMK A01 T03280203  RH  051%=      5-min Rain = 0
KHA1 201710Z 19008KT 33/20 A2976 RMK A01 T03270204  RH  051%=      5-min Rain = 0
KHA1 201715Z 19007G12KT 33/21 A2975 RMK A01 T03310208  RH  051%=      5-min Rain = 0
KHA1 201720Z 19007G12KT 34/21 A2975 RMK A01 T03350206  RH  050%=      5-min Rain = 0
KHA1 201725Z 21009KT 34/21 A2975 RMK A01 T03360205  RH  049%=      5-min Rain = 0
KHA1 201730Z 20007KT 33/21 A2975 RMK A01 T03340205  RH  050%=      5-min Rain = 0
KHA1 201735Z 21008KT 34/20 A2975 RMK A01 T03410201  RH  047%=      5-min Rain = 0
KHA1 201740Z 19009KT 34/21 A2975 RMK A01 T03440206  RH  047%=      5-min Rain = 0
KHA1 201745Z 19008KT 34/21 A2975 RMK A01 T03430205  RH  047%=      5-min Rain = 0
KHA1 201750Z 18009G14KT 34/20 A2975 RMK A01 T03440196  RH  044%=      5-min Rain = 0
KHA1 201755Z 19010KT 35/19 A2975 RMK A01 T03510187  RH  040%=      5-min Rain = 0
KHA1 201800Z 20010KT 36/18 A2975 RMK A01 T03590179  RH  037%=      5-min Rain = 0
KHA1 201805Z 21009KT 36/18 A2974 RMK A01 T03630178  RH  035%=      5-min Rain = 0
KHA1 201810Z 20010KT 36/17 A2974 RMK A01 T03630168  RH  033%=      5-min Rain = 0
KHA1 201815Z 19011KT 36/17 A2974 RMK A01 T03630168  RH  033%=      5-min Rain = 0
KHA1 201820Z 20010G16KT 37/17 A2974 RMK A01 T03650169  RH  033%=      5-min Rain = 0
KHA1 201825Z 19009KT 37/17 A2974 RMK A01 T03700170  RH  032%=      5-min Rain = 0
KHA1 201830Z 19011KT 36/17 A2974 RMK A01 T03640165  RH  032%=      5-min Rain = 0
KHA1 201835Z 20011G17KT 37/16 A2973 RMK A01 T03690164  RH  031%=      5-min Rain = 0
KHA1 201840Z 21011KT 37/16 A2973 RMK A01 T03720162  RH  030%=      5-min Rain = 0
KHA1 201845Z 20010KT 37/16 A2973 RMK A01 T03730164  RH  031%=      5-min Rain = 0
KHA1 201850Z 20011G16KT 38/16 A2973 RMK A01 T03750162  RH  030%=      5-min Rain = 0
KHA1 201855Z 20011KT 38/16 A2973 RMK A01 T03760158  RH  029%=      5-min Rain = 0
KHA1 201900Z 20011KT 38/16 A2973 RMK A01 T03790158  RH  029%=      5-min Rain = 0
KHA1 201905Z 20011KT 38/16 A2973 RMK A01 T03760159  RH  029%=      5-min Rain = 0
KHA1 201910Z 20013KT 38/16 A2973 RMK A01 T03800158  RH  028%=      5-min Rain = 0
KHA1 201915Z 20013G18KT 38/16 A2973 RMK A01 T03780157  RH  028%=      5-min Rain = 0
KHA1 201920Z 20013G18KT 38/15 A2973 RMK A01 T03810148  RH  026%=      5-min Rain = 0
KHA1 201925Z 19012G19KT 38/15 A2973 RMK A01 T03810149  RH  027%=      5-min Rain = 0
KHA1 201930Z 19013G18KT 38/16 A2973 RMK A01 T03810156  RH  028%=      5-min Rain = 0
KHA1 201935Z 20013G18KT 38/15 A2973 RMK A01 T03840154  RH  027%=      5-min Rain = 0
KHA1 201940Z 21013KT 39/16 A2973 RMK A01 T03890155  RH  026%=      5-min Rain = 0
KHA1 201945Z 20010KT 39/16 A2972 RMK A01 T03910161  RH  027%=      5-min Rain = 0
KHA1 201950Z 16008KT 38/18 A2973 RMK A01 T03770179  RH  033%=      5-min Rain = 0
KHA1 201955Z 18008G15KT 38/17 A2972 RMK A01 T03810173  RH  031%=      5-min Rain = 0
KHA1 202000Z 19008G13KT 38/18 A2972 RMK A01 T03840175  RH  031%=      5-min Rain = 0
KHA1 202005Z 17010KT 38/17 A2972 RMK A01 T03830172  RH  031%=      5-min Rain = 0
KHA1 202010Z 19011G16KT 39/16 A2972 RMK A01 T03890164  RH  028%=      5-min Rain = 0
KHA1 202015Z 17009KT 39/17 A2972 RMK A01 T03870170  RH  030%=      5-min Rain = 0
KHA1 202020Z 16007KT 38/18 A2972 RMK A01 T03810180  RH  033%=      5-min Rain = 0
KHA1 202025Z 16008G14KT 38/18 A2971 RMK A01 T03840176  RH  031%=      5-min Rain = 0
KHA1 202030Z 18009G14KT 39/16 A2971 RMK A01 T03870164  RH  029%=      5-min Rain = 0
KHA1 202035Z 20011G16KT 40/15 A2971 RMK A01 T03960154  RH  025%=      5-min Rain = 0
KHA1 202040Z 20010KT 40/16 A2971 RMK A01 T03960163  RH  027%=      5-min Rain = 0
KHA1 202045Z 19010G15KT 40/17 A2971 RMK A01 T03960165  RH  027%=      5-min Rain = 0
KHA1 202050Z 19010KT 40/16 A2971 RMK A01 T03960161  RH  027%=      5-min Rain = 0
KHA1 202055Z 19010G16KT 40/16 A297 RMK A01 T03960164  RH  027%=      5-min Rain = 0
KHA1 202100Z 19008G14KT 40/16 A297 RMK A01 T03960157  RH  026%=      5-min Rain = 0
KHA1 202105Z 19007KT 40/16 A297 RMK A01 T04010161  RH  026%=      5-min Rain = 0
KHA1 202110Z 20008KT 40/15 A297 RMK A01 T04010147  RH  024%=      5-min Rain = 0
KHA1 202115Z 17006G11KT 40/16 A297 RMK A01 T03960164  RH  027%=      5-min Rain = 0
KHA1 202120Z 19009KT 39/16 A2969 RMK A01 T03940159  RH  027%=      5-min Rain = 0
KHA1 202125Z 17010KT 39/16 A2969 RMK A01 T03930157  RH  026%=      5-min Rain = 0
KHA1 202130Z 18010G16KT 39/16 A2969 RMK A01 T03920156  RH  026%=      5-min Rain = 0
KHA1 202135Z 18009KT 40/16 A2969 RMK A01 T03950156  RH  026%=      5-min Rain = 0
KHA1 202140Z 18010KT 39/16 A2969 RMK A01 T03910159  RH  027%=      5-min Rain = 0
KHA1 202145Z 17010G15KT 39/16 A2969 RMK A01 T03910163  RH  028%=      5-min Rain = 0
KHA1 202150Z 18010G16KT 39/15 A2969 RMK A01 T03920153  RH  026%=      5-min Rain = 0
KHA1 202155Z 19010G15KT 39/15 A2969 RMK A01 T03940149  RH  025%=      5-min Rain = 0
KHA1 202200Z 18010G15KT 40/15 A2968 RMK A01 T03950148  RH  024%=      5-min Rain = 0
KHA1 202205Z 17010G17KT 39/15 A2968 RMK A01 T03920154  RH  026%=      5-min Rain = 0
KHA1 202210Z 17011G16KT 39/15 A2968 RMK A01 T03900150  RH  026%=      5-min Rain = 0
KHA1 202215Z 17009G14KT 39/15 A2968 RMK A01 T03920149  RH  025%=      5-min Rain = 0
KHA1 202220Z 18007G13KT 39/16 A2968 RMK A01 T03940155  RH  026%=      5-min Rain = 0
KHA1 202225Z 17009G15KT 39/16 A2968 RMK A01 T03940156  RH  026%=      5-min Rain = 0
KHA1 202230Z 17010KT 39/15 A2968 RMK A01 T03890153  RH  026%=      5-min Rain = 0
KHA1 202235Z 17010KT 39/15 A2968 RMK A01 T03890146  RH  025%=      5-min Rain = 0
KHA1 202240Z 17010G16KT 39/16 A2968 RMK A01 T03890156  RH  027%=      5-min Rain = 0
KHA1 202245Z 17008G14KT 39/16 A2968 RMK A01 T03890163  RH  028%=      5-min Rain = 0
KHA1 202250Z 16011KT 39/16 A2968 RMK A01 T03870162  RH  028%=      5-min Rain = 0
KHA1 202255Z 16011G16KT 38/16 A2968 RMK A01 T03840161  RH  028%=      5-min Rain = 0
KHA1 202300Z 16010G16KT 38/16 A2968 RMK A01 T03840155  RH  027%=      5-min Rain = 0
KHA1 202305Z 16009G14KT 38/15 A2967 RMK A01 T03840154  RH  027%=      5-min Rain = 0
KHA1 202310Z 16009KT 38/15 A2967 RMK A01 T03840152  RH  027%=      5-min Rain = 0
KHA1 202315Z 17009KT 39/15 A2967 RMK A01 T03850147  RH  026%=      5-min Rain = 0
KHA1 202320Z 16008G14KT 39/15 A2967 RMK A01 T03850151  RH  026%=      5-min Rain = 0
KHA1 202325Z 16008G15KT 38/15 A2967 RMK A01 T03830154  RH  027%=      5-min Rain = 0
KHA1 202330Z 15011KT 38/16 A2967 RMK A01 T03800164  RH  030%=      5-min Rain = 0
KHA1 202335Z 15010G17KT 38/18 A2967 RMK A01 T03770179  RH  033%=      5-min Rain = 0
KHA1 202340Z 15007G12KT 38/19 A2967 RMK A01 T03760190  RH  036%=      5-min Rain = 0
KHA1 202345Z 16007KT 38/19 A2967 RMK A01 T03760194  RH  037%=      5-min Rain = 0
KHA1 202350Z 15010KT 37/19 A2967 RMK A01 T03740191  RH  036%=      5-min Rain = 0
KHA1 202355Z 16009G15KT 37/19 A2967 RMK A01 T03730192  RH  037%=      5-min Rain = 0
KHA1 210000Z 16011G17KT 37/19 A2967 RMK A01 T03720187  RH  036%=      5-min Rain = 0
KHA1 210005Z 16009G14KT 37/19 A2967 RMK A01 T03710190  RH  037%=      5-min Rain = 0
KHA1 210010Z 16008G13KT 37/19 A2967 RMK A01 T03690194  RH  038%=      5-min Rain = 0
KHA1 210015Z 16008KT 37/20 A2967 RMK A01 T03670197  RH  039%=      5-min Rain = 0
KHA1 210020Z 16009G15KT 37/20 A2967 RMK A01 T03650196  RH  040%=      5-min Rain = 0
KHA1 210025Z 16010G15KT 36/20 A2967 RMK A01 T03640197  RH  040%=      5-min Rain = 0
KHA1 210030Z 16009KT 36/20 A2967 RMK A01 T03620198  RH  041%=      5-min Rain = 0
KHA1 210035Z 16009KT 36/20 A2967 RMK A01 T03610199  RH  041%=      5-min Rain = 0
KHA1 210040Z 16010G15KT 36/20 A2967 RMK A01 T03590198  RH  041%=      5-min Rain = 0
KHA1 210045Z 16010G15KT 36/20 A2968 RMK A01 T03590198  RH  041%=      5-min Rain = 0
KHA1 210050Z 16011G16KT 36/20 A2967 RMK A01 T03570197  RH  042%=      5-min Rain = 0
KHA1 210055Z 16009G17KT 36/20 A2967 RMK A01 T03550198  RH  042%=      5-min Rain = 0
KHA1 210100Z 16010KT 35/20 A2967 RMK A01 T03530198  RH  043%=      5-min Rain = 0
KHA1 210105Z 16009G14KT 35/20 A2967 RMK A01 T03510198  RH  043%=      5-min Rain = 0
KHA1 210110Z 16009KT 35/20 A2967 RMK A01 T03490199  RH  044%=      5-min Rain = 0
KHA1 210115Z 16009G17KT 35/20 A2967 RMK A01 T03480198  RH  044%=      5-min Rain = 0
KHA1 210120Z 16009KT 35/20 A2967 RMK A01 T03460197  RH  044%=      5-min Rain = 0
KHA1 210125Z 16011KT 35/20 A2967 RMK A01 T03450195  RH  044%=      5-min Rain = 0
KHA1 210130Z 15010KT 34/19 A2967 RMK A01 T03430194  RH  044%=      5-min Rain = 0
KHA1 210135Z 15008KT 34/19 A2968 RMK A01 T03400194  RH  045%=      5-min Rain = 0
KHA1 210140Z 15008KT 34/19 A2968 RMK A01 T03370194  RH  046%=      5-min Rain = 0
KHA1 210145Z 15008G13KT 33/20 A2968 RMK A01 T03340195  RH  046%=      5-min Rain = 0
KHA1 210150Z 15008KT 33/20 A2968 RMK A01 T03330195  RH  047%=      5-min Rain = 0
KHA1 210155Z 15009KT 33/20 A2968 RMK A01 T03310195  RH  047%=      5-min Rain = 0
KHA1 210200Z 15008KT 33/20 A2968 RMK A01 T03290196  RH  048%=      5-min Rain = 0
KHA1 210205Z 15009G15KT 33/20 A2968 RMK A01 T03270197  RH  049%=      5-min Rain = 0
KHA1 210210Z 15009G15KT 33/20 A2968 RMK A01 T03280197  RH  049%=      5-min Rain = 0
KHA1 210215Z 15009KT 33/20 A2968 RMK A01 T03260198  RH  050%=      5-min Rain = 0
KHA1 210220Z 15010KT 33/20 A2968 RMK A01 T03250199  RH  050%=      5-min Rain = 0
KHA1 210225Z 15009G14KT 33/20 A2968 RMK A01 T03250200  RH  051%=      5-min Rain = 0
KHA1 210230Z 15009G14KT 32/20 A2968 RMK A01 T03230200  RH  051%=      5-min Rain = 0
KHA1 210235Z 15009G14KT 32/20 A2968 RMK A01 T03220200  RH  052%=      5-min Rain = 0
KHA1 210240Z 15010G17KT 32/20 A2969 RMK A01 T03220201  RH  052%=      5-min Rain = 0
KHA1 210245Z 15009G14KT 32/20 A2969 RMK A01 T03210201  RH  052%=      5-min Rain = 0
KHA1 210250Z 15009G16KT 32/20 A2969 RMK A01 T03190202  RH  053%=      5-min Rain = 0
KHA1 210255Z 15009G14KT 32/20 A2969 RMK A01 T03180203  RH  054%=      5-min Rain = 0
KHA1 210300Z 15010KT 32/21 A2969 RMK A01 T03160205  RH  055%=      5-min Rain = 0
KHA1 210305Z 16010G15KT 32/21 A2969 RMK A01 T03160206  RH  055%=      5-min Rain = 0
KHA1 210310Z 16010G15KT 32/21 A2969 RMK A01 T03150209  RH  057%=      5-min Rain = 0
KHA1 210315Z 16011G16KT 32/21 A2969 RMK A01 T03150210  RH  057%=      5-min Rain = 0
KHA1 210320Z 16010G15KT 31/21 A2969 RMK A01 T03140211  RH  058%=      5-min Rain = 0
KHA1 210325Z 16011KT 31/21 A297 RMK A01 T03130212  RH  058%=      5-min Rain = 0
KHA1 210330Z 16010KT 31/21 A297 RMK A01 T03130212  RH  059%=      5-min Rain = 0
KHA1 210335Z 16010G17KT 31/21 A297 RMK A01 T03130212  RH  059%=      5-min Rain = 0
KHA1 210340Z 16011KT 31/21 A297 RMK A01 T03120213  RH  059%=      5-min Rain = 0
KHA1 210345Z 16010KT 31/21 A2971 RMK A01 T03110213  RH  059%=      5-min Rain = 0
KHA1 210350Z 16010G15KT 31/21 A2971 RMK A01 T03100213  RH  060%=      5-min Rain = 0
KHA1 210355Z 16011G17KT 31/21 A2971 RMK A01 T03100213  RH  060%=      5-min Rain = 0
KHA1 210400Z 16010G17KT 31/21 A2971 RMK A01 T03100213  RH  060%=      5-min Rain = 0
KHA1 210405Z 16011G18KT 31/21 A2971 RMK A01 T03100213  RH  060%=      5-min Rain = 0
KHA1 210410Z 16011G16KT 31/21 A2971 RMK A01 T03100212  RH  060%=      5-min Rain = 0
KHA1 210415Z 16011G17KT 31/21 A2971 RMK A01 T03090212  RH  060%=      5-min Rain = 0
KHA1 210420Z 16012G18KT 31/21 A2971 RMK A01 T03100212  RH  060%=      5-min Rain = 0
KHA1 210425Z 16011G17KT 31/21 A2972 RMK A01 T03090212  RH  060%=      5-min Rain = 0
KHA1 210430Z 17011G18KT 31/21 A2972 RMK A01 T03090212  RH  060%=      5-min Rain = 0
KHA1 210435Z 17011G16KT 31/21 A2972 RMK A01 T03080212  RH  060%=      5-min Rain = 0
KHA1 210440Z 17012G17KT 31/21 A2972 RMK A01 T03080211  RH  060%=      5-min Rain = 0
KHA1 210445Z 17011KT 31/21 A2972 RMK A01 T03080211  RH  060%=      5-min Rain = 0
KHA1 210450Z 16013G20KT 31/21 A2972 RMK A01 T03080211  RH  060%=      5-min Rain = 0
KHA1 210455Z 17011G17KT 31/21 A2972 RMK A01 T03070211  RH  060%=      5-min Rain = 0

Page generated in 0.0093 seconds.